• Join FlightAware (Why Join?)
  • Login
  • US Flag 
10:16PM EDT


 

Airport Tracker/Info


-or-


 

Live Flight TrackerFlight Track Log ✈ UAL1402 ✈ 24-May-2013 ✈ KIAH - TNCB / BON

Flight Track Log - Related Links

Times and Time Zones

All times are in EDT time to prevent confusion due to time zone crossing. See the UAL1402 flight status page for this flight to view local times or setup timezone preferences in your user account.

Time Position Orientation Groundspeed Altitude Reporting Facility
EDT Latitude Longitude Course Direction KTS MPH feet Rate Location/Type
01:07AM 29.9680 -95.2730 141° Southeast 166 191 1,700  Level FlightAware
01:07AM 29.9460 -95.2540 143° Southeast 199 229 2,600 2,100 Climbing FlightAware
01:08AM 29.9220 -95.2400 153° Southeast 216 249 3,800 2,340 Climbing FlightAware
01:08AM 29.8950 -95.2250 154° Southeast 242 278 4,800 2,400 Climbing FlightAware
01:12AM 29.5940 -95.0520 154° Southeast 355 409 14,800 2,400 Climbing FlightAware
01:13AM 29.5430 -95.0000 138° Southeast 370 426 16,300 2,160 Climbing FlightAware
01:15AM 29.4470 -94.8710 131° Southeast 390 449 19,300 1,440 Climbing FlightAware
01:17AM 29.2700 -94.6330 130° Southeast 408 470 22,300 1,620 Climbing FlightAware
01:19AM 29.1330 -94.4540 131° Southeast 438 504 26,300 1,860 Climbing FlightAware
01:19AM 29.0890 -94.3950 130° Southeast 438 504 26,300  Level FlightAware
01:20AM 29.0450 -94.3350 130° Southeast 438 504 26,300  Level FlightAware
01:21AM 28.9920 -94.2620 130° Southeast 438 504 26,300  Level FlightAware
01:21AM 28.9520 -94.2080 130° Southeast 438 504 26,300  Level FlightAware
01:22AM 28.8990 -94.1360 130° Southeast 438 504 26,300 2,640 Level FlightAware
01:23AM 28.7456 -93.9458 130° Southeast 484 557 31,200 3,060 Climbing Houston Center
01:24AM 28.6569 -93.8319 132° Southeast 481 554 32,600 1,320 Climbing Houston Center
01:25AM 28.5692 -93.7181 131° Southeast 478 550 33,900 1,140 Climbing Houston Center
01:26AM 28.4822 -93.6064 132° Southeast 473 544 35,000 960 Climbing Houston Center
01:27AM 28.3964 -93.4953 131° Southeast 471 542 35,900 840 Climbing Houston Center
01:28AM 28.3108 -93.3822 131° Southeast 472 543 36,700 540 Climbing Houston Center
01:29AM 28.2239 -93.2719 132° Southeast 469 540 37,000 60 Climbing Houston Center
01:30AM 28.1478 -93.1747 132° Southeast 466 536 36,900  Descending Houston Center
01:31AM 28.0619 -93.0639 131° Southeast 468 539 37,000  Climbing Houston Center
01:32AM 27.9769 -92.9533 131° Southeast 467 537 36,900  Descending Houston Center
01:33AM 27.8908 -92.8458 132° Southeast 465 535 37,000  Climbing Houston Center
01:34AM 27.8044 -92.7364 132° Southeast 466 536 36,900 -120 Descending Houston Center
01:36AM 27.7062 -92.6127 131° Southeast  Level FlightAware Approximate
01:43AM 27.0861 -91.8687 144° Southeast  Level FlightAware Approximate
01:44AM 26.9805 -91.7841 144° Southeast  Level FlightAware Approximate
01:45AM 26.8748 -91.6997 145° Southeast  Level FlightAware Approximate
01:46AM 26.7691 -91.6154 145° Southeast  Level FlightAware Approximate
01:47AM 26.6633 -91.5313 145° Southeast  Level FlightAware Approximate
01:48AM 26.5575 -91.4474 145° Southeast  Level FlightAware Approximate
01:49AM 26.4516 -91.3636 145° Southeast  Level FlightAware Approximate
01:50AM 26.3457 -91.2799 145° Southeast  Level FlightAware Approximate
01:51AM 26.2398 -91.1964 145° Southeast  Level FlightAware Approximate
01:52AM 26.1338 -91.1130 145° Southeast  Level FlightAware Approximate
01:53AM 26.0278 -91.0297 145° Southeast  Level FlightAware Approximate
01:54AM 25.9217 -90.9466 145° Southeast  Level FlightAware Approximate
01:55AM 25.8156 -90.8636 145° Southeast  Level FlightAware Approximate
01:56AM 25.7094 -90.7808 145° Southeast  Level FlightAware Approximate
01:57AM 25.6032 -90.6982 145° Southeast  Level FlightAware Approximate
01:58AM 25.4970 -90.6156 145° Southeast  Level FlightAware Approximate
01:59AM 25.3907 -90.5333 145° Southeast  Level FlightAware Approximate
02:00AM 25.2843 -90.4510 145° Southeast  Level FlightAware Approximate
02:01AM 25.1780 -90.3689 145° Southeast  Level FlightAware Approximate
02:02AM 25.0715 -90.2870 145° Southeast  Level FlightAware Approximate
02:03AM 24.9650 -90.2052 145° Southeast  Level FlightAware Approximate
02:04AM 24.8585 -90.1236 145° Southeast  Level FlightAware Approximate
02:05AM 24.7520 -90.0420 145° Southeast  Level FlightAware Approximate
02:06AM 24.6453 -89.9607 145° Southeast  Level FlightAware Approximate
02:07AM 24.5387 -89.8794 145° Southeast  Level FlightAware Approximate
02:08AM 24.4527 -89.7764 121° Southeast  Level FlightAware Approximate
02:09AM 24.3867 -89.6538 121° Southeast  Level FlightAware Approximate
02:10AM 24.3207 -89.5312 121° Southeast  Level FlightAware Approximate
02:11AM 24.2547 -89.4087 121° Southeast  Level FlightAware Approximate
02:12AM 24.1939 -89.2830 118° Southeast  Level FlightAware Approximate
02:13AM 24.1334 -89.1572 118° Southeast  Level FlightAware Approximate
02:14AM 24.0728 -89.0315 118° Southeast  Level FlightAware Approximate
02:15AM 24.0089 -88.9080 123° Southeast  Level FlightAware Approximate
02:16AM 23.9391 -88.7883 123° Southeast  Level FlightAware Approximate
02:17AM 23.8745 -88.6653 119° Southeast  Level FlightAware Approximate
02:18AM 23.8123 -88.5408 119° Southeast  Level FlightAware Approximate
02:19AM 23.7501 -88.4165 119° Southeast  Level FlightAware Approximate
02:20AM 23.6874 -88.2924 120° Southeast  Level FlightAware Approximate
02:21AM 23.6232 -88.1693 120° Southeast  Level FlightAware Approximate
02:22AM 23.5590 -88.0463 120° Southeast  Level FlightAware Approximate
02:23AM 23.4946 -87.9234 120° Southeast  Level FlightAware Approximate
02:24AM 23.4302 -87.8007 120° Southeast  Level FlightAware Approximate
02:25AM 23.3657 -87.6780 120° Southeast  Level FlightAware Approximate
02:26AM 23.3010 -87.5555 120° Southeast  Level FlightAware Approximate
02:27AM 23.2363 -87.4331 120° Southeast  Level FlightAware Approximate
02:28AM 23.1715 -87.3109 120° Southeast  Level FlightAware Approximate
02:29AM 23.1066 -87.1887 120° Southeast  Level FlightAware Approximate
02:30AM 23.0415 -87.0667 120° Southeast  Level FlightAware Approximate
02:31AM 22.9764 -86.9447 120° Southeast  Level FlightAware Approximate
02:32AM 22.9112 -86.8230 120° Southeast  Level FlightAware Approximate
02:33AM 22.8459 -86.7013 120° Southeast  Level FlightAware Approximate
02:34AM 22.7806 -86.5797 120° Southeast  Level FlightAware Approximate
02:35AM 22.7151 -86.4582 120° Southeast  Level FlightAware Approximate
02:36AM 22.6495 -86.3369 120° Southeast  Level FlightAware Approximate
02:37AM 22.5839 -86.2157 120° Southeast  Level FlightAware Approximate
02:38AM 22.5181 -86.0946 120° Southeast  Level FlightAware Approximate
02:39AM 22.4524 -85.9735 120° Southeast  Level FlightAware Approximate
02:40AM 22.3868 -85.8524 120° Southeast  Level FlightAware Approximate
02:41AM 22.3212 -85.7314 120° Southeast  Level FlightAware Approximate
02:42AM 22.2555 -85.6105 120° Southeast  Level FlightAware Approximate
02:43AM 22.1897 -85.4898 120° Southeast  Level FlightAware Approximate
02:44AM 22.1238 -85.3691 121° Southeast  Level FlightAware Approximate
02:45AM 22.0578 -85.2485 121° Southeast  Level FlightAware Approximate
02:46AM 21.9917 -85.1281 121° Southeast  Level FlightAware Approximate
02:47AM 21.9255 -85.0078 121° Southeast  Level FlightAware Approximate
02:48AM 21.8593 -84.8876 121° Southeast  Level FlightAware Approximate
02:49AM 21.7929 -84.7675 121° Southeast  Level FlightAware Approximate
02:50AM 21.7265 -84.6475 121° Southeast  Level FlightAware Approximate
02:51AM 21.6600 -84.5276 121° Southeast  Level FlightAware Approximate
02:52AM 21.5934 -84.4078 121° Southeast  Level FlightAware Approximate
02:53AM 21.5267 -84.2882 121° Southeast  Level FlightAware Approximate
02:54AM 21.4599 -84.1686 121° Southeast  Level FlightAware Approximate
02:55AM 21.3931 -84.0492 121° Southeast  Level FlightAware Approximate
02:56AM 21.3261 -83.9298 121° Southeast  Level FlightAware Approximate
02:57AM 21.2591 -83.8106 121° Southeast  Level FlightAware Approximate
02:58AM 21.1920 -83.6915 121° Southeast  Level FlightAware Approximate
02:59AM 21.1248 -83.5725 121° Southeast  Level FlightAware Approximate
03:00AM 21.0575 -83.4536 121° Southeast  Level FlightAware Approximate
03:01AM 20.9902 -83.3348 121° Southeast  Level FlightAware Approximate
03:02AM 20.9227 -83.2161 121° Southeast  Level FlightAware Approximate
03:03AM 20.8552 -83.0975 121° Southeast  Level FlightAware Approximate
03:04AM 20.7876 -82.9791 121° Southeast  Level FlightAware Approximate
03:05AM 20.7199 -82.8607 121° Southeast  Level FlightAware Approximate
03:06AM 20.6522 -82.7425 121° Southeast  Level FlightAware Approximate
03:07AM 20.5843 -82.6243 122° Southeast  Level FlightAware Approximate
03:08AM 20.5164 -82.5063 122° Southeast  Level FlightAware Approximate
03:09AM 20.4484 -82.3883 122° Southeast  Level FlightAware Approximate
03:10AM 20.3803 -82.2705 122° Southeast  Level FlightAware Approximate
03:11AM 20.3121 -82.1527 122° Southeast  Level FlightAware Approximate
03:12AM 20.2439 -82.0351 122° Southeast  Level FlightAware Approximate
03:13AM 20.1756 -81.9176 122° Southeast  Level FlightAware Approximate
03:14AM 20.1072 -81.8002 122° Southeast  Level FlightAware Approximate
03:15AM 20.0387 -81.6829 122° Southeast  Level FlightAware Approximate
03:16AM 19.9700 -81.5657 122° Southeast  Level FlightAware Approximate
03:17AM 19.9011 -81.4488 122° Southeast  Level FlightAware Approximate
03:18AM 19.8322 -81.3319 122° Southeast  Level FlightAware Approximate
03:19AM 19.7631 -81.2152 122° Southeast  Level FlightAware Approximate
03:20AM 19.6940 -81.0985 122° Southeast  Level FlightAware Approximate
03:21AM 19.6248 -80.9820 122° Southeast  Level FlightAware Approximate
03:22AM 19.5555 -80.8655 122° Southeast  Level FlightAware Approximate
03:23AM 19.4862 -80.7492 122° Southeast  Level FlightAware Approximate
03:24AM 19.4168 -80.6330 122° Southeast  Level FlightAware Approximate
03:25AM 19.3473 -80.5168 122° Southeast  Level FlightAware Approximate
03:26AM 19.2778 -80.4008 122° Southeast  Level FlightAware Approximate
03:27AM 19.2081 -80.2849 122° Southeast  Level FlightAware Approximate
03:28AM 19.1384 -80.1690 122° Southeast  Level FlightAware Approximate
03:29AM 19.0686 -80.0533 123° Southeast  Level FlightAware Approximate
03:30AM 18.9986 -79.9377 123° Southeast  Level FlightAware Approximate
03:31AM 18.9286 -79.8222 123° Southeast  Level FlightAware Approximate
03:32AM 18.8585 -79.7068 123° Southeast  Level FlightAware Approximate
03:33AM 18.7883 -79.5916 123° Southeast  Level FlightAware Approximate
03:34AM 18.7180 -79.4764 123° Southeast  Level FlightAware Approximate
03:35AM 18.6477 -79.3613 123° Southeast  Level FlightAware Approximate
03:36AM 18.5773 -79.2463 123° Southeast  Level FlightAware Approximate
03:37AM 18.5068 -79.1314 123° Southeast  Level FlightAware Approximate
03:38AM 18.4362 -79.0166 123° Southeast  Level FlightAware Approximate
03:39AM 18.3656 -78.9019 123° Southeast  Level FlightAware Approximate
03:40AM 18.2950 -78.7873 123° Southeast  Level FlightAware Approximate
03:41AM 18.2242 -78.6728 123° Southeast  Level FlightAware Approximate
03:42AM 18.1534 -78.5584 123° Southeast  Level FlightAware Approximate
03:43AM 18.0825 -78.4441 123° Southeast  Level FlightAware Approximate
03:44AM 18.0115 -78.3298 123° Southeast  Level FlightAware Approximate
03:45AM 17.9405 -78.2157 123° Southeast  Level FlightAware Approximate
03:46AM 17.8694 -78.1016 123° Southeast  Level FlightAware Approximate
03:47AM 17.7983 -77.9877 123° Southeast  Level FlightAware Approximate
03:48AM 17.7271 -77.8738 123° Southeast  Level FlightAware Approximate
03:49AM 17.6558 -77.7600 123° Southeast  Level FlightAware Approximate
03:50AM 17.5844 -77.6463 123° Southeast  Level FlightAware Approximate
03:51AM 17.5130 -77.5327 123° Southeast  Level FlightAware Approximate
03:52AM 17.4415 -77.4192 123° Southeast  Level FlightAware Approximate
03:53AM 17.3700 -77.3058 123° Southeast  Level FlightAware Approximate
03:54AM 17.2984 -77.1925 123° Southeast  Level FlightAware Approximate
03:55AM 17.2267 -77.0792 124° Southeast  Level FlightAware Approximate
03:56AM 17.1550 -76.9661 124° Southeast  Level FlightAware Approximate
03:57AM 17.0832 -76.8530 124° Southeast  Level FlightAware Approximate
03:58AM 17.0113 -76.7400 124° Southeast  Level FlightAware Approximate
03:59AM 16.9394 -76.6271 124° Southeast  Level FlightAware Approximate
04:00AM 16.8674 -76.5143 124° Southeast  Level FlightAware Approximate
04:01AM 16.7954 -76.4016 124° Southeast  Level FlightAware Approximate
04:02AM 16.7233 -76.2889 124° Southeast  Level FlightAware Approximate
04:03AM 16.6511 -76.1764 124° Southeast  Level FlightAware Approximate
04:04AM 16.5789 -76.0639 124° Southeast  Level FlightAware Approximate
04:05AM 16.5066 -75.9516 124° Southeast  Level FlightAware Approximate
04:06AM 16.4342 -75.8392 124° Southeast  Level FlightAware Approximate
04:07AM 16.3618 -75.7270 124° Southeast  Level FlightAware Approximate
04:08AM 16.2893 -75.6149 124° Southeast  Level FlightAware Approximate
04:09AM 16.2168 -75.5029 124° Southeast  Level FlightAware Approximate
04:10AM 16.1442 -75.3909 124° Southeast  Level FlightAware Approximate
04:11AM 16.0716 -75.2790 124° Southeast  Level FlightAware Approximate
04:12AM 15.9989 -75.1672 124° Southeast  Level FlightAware Approximate
04:13AM 15.9261 -75.0555 124° Southeast  Level FlightAware Approximate
04:14AM 15.8533 -74.9438 124° Southeast  Level FlightAware Approximate
04:15AM 15.7804 -74.8323 124° Southeast  Level FlightAware Approximate
04:16AM 15.7075 -74.7208 124° Southeast  Level FlightAware Approximate
04:17AM 15.6345 -74.6094 124° Southeast  Level FlightAware Approximate
04:18AM 15.5615 -74.4981 124° Southeast  Level FlightAware Approximate
04:19AM 15.4884 -74.3868 124° Southeast  Level FlightAware Approximate
04:20AM 15.4152 -74.2757 124° Southeast  Level FlightAware Approximate
04:21AM 15.3420 -74.1646 124° Southeast  Level FlightAware Approximate
04:22AM 15.2687 -74.0536 124° Southeast  Level FlightAware Approximate
04:23AM 15.1956 -73.9425 124° Southeast  Level FlightAware Approximate
04:24AM 15.1225 -73.8314 124° Southeast  Level FlightAware Approximate
04:25AM 15.0494 -73.7204 124° Southeast  Level FlightAware Approximate
04:26AM 14.9763 -73.6095 124° Southeast  Level FlightAware Approximate
04:27AM 14.9031 -73.4986 124° Southeast  Level FlightAware Approximate
04:28AM 14.8298 -73.3878 124° Southeast  Level FlightAware Approximate
04:29AM 14.7565 -73.2771 124° Southeast  Level FlightAware Approximate
04:30AM 14.6832 -73.1665 124° Southeast  Level FlightAware Approximate
04:31AM 14.6097 -73.0559 124° Southeast  Level FlightAware Approximate
04:32AM 14.5363 -72.9454 124° Southeast  Level FlightAware Approximate
04:33AM 14.4628 -72.8350 125° Southeast  Level FlightAware Approximate
04:34AM 14.3892 -72.7247 125° Southeast  Level FlightAware Approximate
04:35AM 14.3156 -72.6144 125° Southeast  Level FlightAware Approximate
04:36AM 14.2419 -72.5042 125° Southeast  Level FlightAware Approximate
04:37AM 14.1682 -72.3941 125° Southeast  Level FlightAware Approximate
04:38AM 14.0944 -72.2840 125° Southeast  Level FlightAware Approximate
04:39AM 14.0206 -72.1741 125° Southeast  Level FlightAware Approximate
04:40AM 13.9467 -72.0641 125° Southeast  Level FlightAware Approximate
04:41AM 13.8728 -71.9543 125° Southeast  Level FlightAware Approximate
04:42AM 13.7988 -71.8445 125° Southeast  Level FlightAware Approximate
04:43AM 13.7248 -71.7348 125° Southeast  Level FlightAware Approximate
04:44AM 13.6507 -71.6252 125° Southeast  Level FlightAware Approximate
04:45AM 13.5766 -71.5156 125° Southeast  Level FlightAware Approximate
04:46AM 13.5025 -71.4062 125° Southeast  Level FlightAware Approximate
04:47AM 13.4283 -71.2967 125° Southeast  Level FlightAware Approximate
04:48AM 13.3540 -71.1874 125° Southeast  Level FlightAware Approximate
04:49AM 13.2797 -71.0781 125° Southeast  Level FlightAware Approximate
04:50AM 13.2053 -70.9689 125° Southeast  Level FlightAware Approximate
04:51AM 13.1309 -70.8597 125° Southeast  Level FlightAware Approximate
04:52AM 13.0565 -70.7506 125° Southeast  Level FlightAware Approximate
04:53AM 12.9865 -70.6386 122° Southeast  Level FlightAware Approximate
04:54AM 12.9164 -70.5266 127° Southeast  Level FlightAware Approximate
04:55AM 12.8389 -70.4199 127° Southeast  Level FlightAware Approximate
04:56AM 12.7613 -70.3133 127° Southeast  Level FlightAware Approximate
04:57AM 12.6837 -70.2067 127° Southeast  Level FlightAware Approximate
04:58AM 12.6147 -70.0950 131° Southeast  Level FlightAware Approximate
04:59AM 12.5304 -69.9942 117° Southeast  Level FlightAware Approximate
05:00AM 12.4713 -69.8759 117° Southeast  Level FlightAware Approximate
05:01AM 12.4322 -69.7494 107° East  Level FlightAware Approximate
05:02AM 12.3948 -69.6222 107° East  Level FlightAware Approximate
05:03AM 12.3543 -69.4960 109° East  Level FlightAware Approximate
05:04AM 12.3125 -69.3703 109° East  Level FlightAware Approximate
05:05AM 12.2706 -69.2446 109° East  Level FlightAware Approximate
05:06AM 12.2286 -69.1190 109° East  Level FlightAware Approximate
05:07AM 12.1833 -68.9950 90° East  Level FlightAware Approximate
05:08AM 12.1792 -68.8624 94° East  Level FlightAware Approximate
05:09AM 12.1690 -68.7301 94° East  Level FlightAware Approximate
05:10AM 12.1565 -68.5980 96° East  Level FlightAware Approximate
05:11AM 12.1493 -68.4660 136° Southeast  Level FlightAware Approximate
05:12AM 12.1290 -68.3405 100° East  Level FlightAware Approximate